Weather at San Silvestre Airport

Public forecast

Using degrees Celsius for public forecast. Weather courtesy of forecast.io.

Closest aviation weather report (METAR) to San Silvestre Airport

Closest report is Guanare Airport, 44.3 nm (82.0 km) NNE.

2024/07/20 18:03 (retrieved 39 minutes ago)

SVGU 201803Z AUTO ///01KT NCD ///// Q1017

Closest aviation forecast (TAF) to San Silvestre Airport

Closest forecast is San Antonio Del Tachira Airport, 145.3 nm (269.1 km) WSW.

2024/07/20 18:15 (retrieved 27 minutes ago)

TAF SVSA 201600Z 2018/2118 15007KT 9999 SCT020 TX32/2018Z TN20/2108 TEMPO 2019/2022 09010KT 9000 DZ SCT080 BKN013